ADDS METAR Data INFO
IDs: Format: Raw Decoded Include TAF

Data at: 0748 UTC 21 Jul 2018

PAKP 210656Z AUTO 06006KT 10SM OVC040 09/07 A3024 RMK AO2 RAE0559 SLP266 P0000 T00890067
PAKP 210556Z AUTO 05009KT 10SM -RA OVC046 09/07 A3023 RMK AO2 RAB0459 SLP264 P0000 60000 T00890067 10139 20089 53013
PAKP 210456Z AUTO 05010KT 10SM OVC046 09/07 A3021 RMK AO2 SLP259 T00940067
PAKP 210356Z AUTO 06009KT 10SM OVC046 11/07 A3020 RMK AO2 RAB38E50 SLP255 P0000 T01060067
PAKP 210256Z AUTO 06010KT 10SM OVC044 11/06 A3019 RMK AO2 SLP251 T01110061 53008
PAKP 210156Z AUTO VRB04KT 10SM OVC044 14/06 A3017 RMK AO2 SLP246 T01390056
PAKP 210056Z AUTO 24007KT 10SM OVC050 14/05 A3016 RMK AO2 SLP242 T01390050
PAKP 202356Z AUTO 24008KT 10SM OVC050 14/05 A3016 RMK AO2 SLP243 T01390050 10139 20089 51001
PAKP 202256Z AUTO 24008KT 10SM OVC055 13/04 A3016 RMK AO2 SLP244 T01330039
PAKP 202156Z AUTO 25008KT 10SM CLR 13/03 A3016 RMK AO2 SLP243 T01280033
PAKP 202056Z AUTO 20009KT 10SM OVC075 12/06 A3016 RMK AO2 SLP242 T01220056 55001
PAKP 201956Z AUTO 24007KT 10SM OVC085 12/04 A3015 RMK AO2 SLP240 T01170044
PAKP 201856Z AUTO 19008KT 10SM BKN040 BKN047 OVC090 10/06 A3016 RMK AO2 SLP242 T01000061
PAKP 201756Z AUTO 21008KT 10SM OVC043 09/05 A3016 RMK AO2 SLP243 T00890050 10089 20017 58007
PAKP 201656Z AUTO 00000KT 10SM OVC041 08/04 A3017 RMK AO2 SLP248 T00780044
PAKP 201556Z AUTO 21003KT 10SM OVC041 06/03 A3018 RMK AO2 SLP251 T00610033
PAKP 201456Z AUTO 19005KT 10SM BKN045 05/03 A3018 RMK AO2 SLP254 T00500033 58003
PAKP 201356Z AUTO 21005KT 10SM SCT043 03/02 A3019 RMK AO2 SLP256 T00330017
PAKP 201256Z AUTO 00000KT 10SM CLR 02/02 A3019 RMK AO2 SLP258 T00220017 FZRANO
PAKP 201156Z AUTO 00000KT 10SM CLR 02/01 A3019 RMK AO2 SLP260 70029 T00170011 10061 20011 50000 FZRANO
PAKP 201056Z AUTO 00000KT 10SM CLR 01/01 A3020 RMK AO2 SLP263 T00110006 FZRANO
PAKP 200956Z AUTO 00000KT 10SM CLR 02/02 A3020 RMK AO2 SLP262 T00220017 FZRANO
PAKP 200856Z AUTO 00000KT 10SM CLR 03/03 A3019 RMK AO2 SLP260 T00330028 400780033 58000
PAKP 200814Z AUTO 35005KT 10SM SCT024 04/03 A3019 RMK AO2
PAKP 200756Z AUTO 02005KT 10SM OVC024 05/03 A3019 RMK AO2 SLP258 T00500033
PAKP 200734Z AUTO 03005KT 10SM BKN026 06/04 A3019 RMK AO2
PAKP 200656Z AUTO 07007KT 10SM CLR 06/04 A3019 RMK AO2 SLP258 T00560039
PAKP 200556Z AUTO 05008KT 10SM FEW031 06/04 A3019 RMK AO2 SLP258 60000 T00610039 10078 20061 51009
PAKP 200456Z AUTO 03008KT 10SM FEW031 SCT038 08/04 A3018 RMK AO2 SLP254 T00780039
PAKP 200423Z AUTO 04008KT 10SM OVC031 08/04 A3018 RMK AO2
PAKP 200356Z AUTO 04010KT 10SM OVC027 08/04 A3018 RMK AO2 SLP253 T00780039
PAKP 200256Z AUTO 04011KT 10SM OVC027 07/04 A3017 RMK AO2 SLP248 60000 T00720039 53014
PAKP 200156Z AUTO 04013KT 10SM BKN025 OVC041 08/04 A3015 RMK AO2 RAB35E50 SLP241 P0000 T00780044
PAKP 200125Z AUTO 05011KT 10SM BKN025 BKN037 OVC045 08/04 A3014 RMK AO2
PAKP 200056Z AUTO 05011KT 10SM FEW027 SCT035 OVC045 08/04 A3013 RMK AO2 SLP234 T00780039
PAKP 192356Z AUTO 05009KT 10SM OVC035 07/04 A3012 RMK AO2 RAE18 SLP231 P0000 60001 T00720039 10072 20050 51019
PAKP 192256Z AUTO 04011KT 10SM -RA SCT034 OVC042 07/04 A3011 RMK AO2 SLP226 P0001 T00670044
PAKP 192156Z AUTO 04011KT 10SM -RA BKN039 OVC048 06/04 A3008 RMK AO2 RAB49 SLP218 P0000 T00610039
PAKP 192108Z AUTO 06011KT 10SM SCT019 BKN035 OVC065 06/04 A3006 RMK AO2
PAKP 192056Z AUTO 04012KT 10SM BKN021 BKN028 OVC036 06/04 A3006 RMK AO2 RAB28E47 SLP211 P0000 60000 T00560039 53019
PAKP 191956Z AUTO 05013KT 10SM SCT021 OVC029 06/04 A3004 RMK AO2 RAE43 SLP199 P0000 T00560039